Natrona Heights, Pennsylvania
Current Conditions -  °F | °C
As of 7:55 PM on Friday 24 Oct 2014 (Local Time) from KBTP Reporting Station
Clear Clear  
Wind Chill: 48°   Ceiling: Unl
Heat Index: 48°   Visibility: 10mi
Dew Point: 36°   Wind: 0mph
Humidity: 62%   Direction: NA
Pressure: 30.02"   Gusts: NA
Location:  40.62°N, 79.73°W
Report Text: KBTP 242355Z AUTO 00000KT 10SM CLR 09/02 A3002 RMK AO1 10160 20090 401600020 52003
Loading
Personal Weather Stations






























Interactive Weather Map
Tropical Storm Tracking
New forecast layout! Learn more

10-Day Weather Forecast

Advertisements
Track Severe Weather on mobile